createdAt,value
2022-08-23T00:01:26.344Z,8.82
2022-08-23T00:03:58.997Z,8.90
2022-08-23T00:06:25.852Z,9.55
2022-08-23T00:08:53.671Z,8.60
2022-08-23T00:11:30.823Z,8.90
2022-08-23T00:13:59.227Z,9.43
2022-08-23T00:16:26.331Z,9.27
2022-08-23T00:18:53.053Z,8.93
2022-08-23T00:21:19.878Z,9.32
2022-08-23T00:23:46.585Z,8.73
2022-08-23T00:26:13.490Z,8.95
2022-08-23T00:28:40.693Z,9.45
2022-08-23T00:31:07.547Z,9.82
2022-08-23T00:33:35.297Z,9.77
2022-08-23T00:36:02.122Z,9.07
2022-08-23T00:38:34.271Z,9.82
2022-08-23T00:41:02.714Z,10.85
2022-08-23T00:43:55.043Z,9.95
2022-08-23T00:47:03.230Z,10.20
2022-08-23T00:49:31.786Z,10.38
2022-08-23T00:52:41.513Z,8.98
2022-08-23T00:55:08.430Z,9.93
2022-08-23T00:57:37.288Z,9.43
2022-08-23T01:02:34.422Z,9.02
2022-08-23T01:05:01.357Z,8.85
2022-08-23T01:07:37.992Z,8.95
2022-08-23T01:10:09.361Z,8.95
2022-08-23T01:12:47.395Z,8.73
2022-08-23T01:15:23.252Z,8.90
2022-08-23T01:17:55.281Z,7.82
2022-08-23T01:20:27.013Z,8.23
2022-08-23T01:23:00.690Z,6.47
2022-08-23T01:25:30.099Z,8.65
2022-08-23T01:27:57.577Z,9.13
2022-08-23T01:30:27.385Z,8.30
2022-08-23T01:32:57.443Z,8.38
2022-08-23T01:35:53.495Z,9.43
2022-08-23T01:38:20.354Z,9.27
2022-08-23T01:40:47.221Z,10.25
2022-08-23T01:43:15.494Z,8.65
2022-08-23T01:45:42.946Z,8.75
2022-08-23T01:48:09.668Z,9.60
2022-08-23T01:53:08.532Z,8.57
2022-08-23T01:55:35.960Z,8.32
2022-08-23T01:58:03.976Z,8.80
2022-08-23T02:00:34.279Z,8.93
2022-08-23T02:03:01.329Z,10.65
2022-08-23T02:05:29.031Z,11.13
2022-08-23T02:07:56.062Z,9.10
2022-08-23T02:10:23.103Z,8.85
2022-08-23T02:12:50.826Z,9.05
2022-08-23T02:15:17.768Z,6.88
2022-08-23T02:17:44.618Z,7.47
2022-08-23T02:20:11.682Z,7.18
2022-08-23T02:22:39.731Z,8.95
2022-08-23T02:25:07.528Z,7.72
2022-08-23T02:27:34.274Z,9.77
2022-08-23T02:30:01.947Z,9.32
2022-08-23T02:32:28.897Z,9.63
2022-08-23T02:35:04.481Z,9.18
2022-08-23T02:37:32.129Z,9.98
2022-08-23T02:39:58.860Z,10.18
2022-08-23T02:42:25.649Z,10.45
2022-08-23T02:44:52.395Z,8.80
2022-08-23T02:47:19.601Z,11.55
2022-08-23T02:49:46.357Z,11.30
2022-08-23T02:52:13.107Z,11.82
2022-08-23T02:54:39.850Z,11.52
2022-08-23T02:57:06.915Z,12.07
2022-08-23T02:59:33.950Z,8.85
2022-08-23T03:02:00.712Z,10.80
2022-08-23T03:04:27.668Z,12.20
2022-08-23T03:06:54.400Z,11.88
2022-08-23T03:09:21.217Z,11.10
2022-08-23T03:11:49.946Z,12.30
2022-08-23T03:14:17.244Z,10.95
2022-08-23T03:16:44.298Z,11.25
2022-08-23T03:19:11.316Z,12.25
2022-08-23T03:21:38.673Z,11.27
2022-08-23T03:24:10.243Z,11.35
2022-08-23T03:26:37.398Z,9.23
2022-08-23T03:29:04.236Z,10.70
2022-08-23T03:31:31.270Z,12.13
2022-08-23T03:33:58.245Z,11.43
2022-08-23T03:36:28.144Z,11.10
2022-08-23T03:38:55.389Z,12.20
2022-08-23T03:41:22.469Z,13.88
2022-08-23T03:43:49.346Z,15.60
2022-08-23T03:46:23.918Z,14.40
2022-08-23T03:48:59.692Z,14.00
2022-08-23T03:51:27.866Z,12.13
2022-08-23T03:53:54.640Z,14.35
2022-08-23T03:57:02.709Z,26.98
2022-08-23T03:59:31.371Z,17.95
2022-08-23T04:01:58.164Z,16.20
2022-08-23T04:04:24.958Z,13.02
2022-08-23T04:06:51.671Z,12.00
2022-08-23T04:09:18.403Z,12.20
2022-08-23T04:11:45.142Z,14.93
2022-08-23T04:14:13.108Z,24.25
2022-08-23T04:16:40.483Z,15.65
2022-08-23T04:19:15.211Z,11.93
2022-08-23T04:21:46.356Z,11.93
2022-08-23T04:24:13.302Z,13.27
2022-08-23T04:26:40.560Z,11.50
2022-08-23T04:29:08.483Z,12.82
2022-08-23T04:31:37.163Z,12.20
2022-08-23T04:34:05.737Z,11.82
2022-08-23T04:36:41.740Z,8.98
2022-08-23T04:39:16.886Z,5.30
2022-08-23T04:42:22.761Z,8.48
2022-08-23T04:44:50.406Z,6.35
2022-08-23T04:47:17.872Z,5.95
2022-08-23T04:49:44.555Z,6.47
2022-08-23T04:52:12.206Z,6.32
2022-08-23T04:54:41.011Z,4.60
2022-08-23T04:57:07.851Z,6.35
2022-08-23T04:59:34.534Z,5.88
2022-08-23T05:02:01.242Z,6.72
2022-08-23T05:04:28.070Z,6.72
2022-08-23T05:06:54.779Z,6.35
2022-08-23T05:09:21.604Z,5.72
2022-08-23T05:11:48.474Z,6.88
2022-08-23T05:14:15.160Z,7.15
2022-08-23T05:16:41.862Z,6.10
2022-08-23T05:19:08.569Z,7.47
2022-08-23T05:21:35.336Z,6.82
2022-08-23T05:24:03.870Z,7.30
2022-08-23T05:26:30.611Z,7.57
2022-08-23T05:28:57.465Z,7.93
2022-08-23T05:31:26.560Z,6.43
2022-08-23T05:33:53.619Z,9.65
2022-08-23T05:36:21.561Z,7.53
2022-08-23T05:38:49.514Z,8.75
2022-08-23T05:41:17.489Z,8.50
2022-08-23T05:43:44.148Z,9.00
2022-08-23T05:46:14.689Z,8.40
2022-08-23T05:48:43.858Z,8.80
2022-08-23T05:51:22.779Z,9.65
2022-08-23T05:53:50.701Z,8.48
2022-08-23T05:56:29.094Z,8.18
2022-08-23T05:59:00.002Z,9.20
2022-08-23T06:01:29.370Z,6.88
2022-08-23T06:03:56.254Z,8.25
2022-08-23T06:06:22.958Z,9.02
2022-08-23T06:09:03.567Z,7.82
2022-08-23T06:11:30.781Z,8.35
2022-08-23T06:14:02.492Z,8.35
2022-08-23T06:16:32.554Z,10.55
2022-08-23T06:19:02.396Z,9.50
2022-08-23T06:21:29.865Z,9.40
2022-08-23T06:23:56.847Z,6.93
2022-08-23T06:26:27.448Z,8.88
2022-08-23T06:28:57.137Z,8.75
2022-08-23T06:31:43.637Z,10.02
2022-08-23T06:34:13.172Z,14.48
2022-08-23T06:36:40.757Z,8.93
2022-08-23T06:39:09.003Z,8.38
2022-08-23T06:41:36.444Z,8.98
2022-08-23T06:44:04.085Z,9.07
2022-08-23T06:46:31.458Z,8.52
2022-08-23T06:48:59.626Z,9.07
2022-08-23T06:51:32.172Z,9.48
2022-08-23T06:54:03.230Z,8.98
2022-08-23T06:56:30.712Z,8.77
2022-08-23T06:58:57.838Z,9.02
2022-08-23T07:01:48.999Z,9.07
2022-08-23T07:04:18.642Z,9.23
2022-08-23T07:06:45.835Z,9.10
2022-08-23T07:09:12.657Z,9.48
2022-08-23T07:11:39.498Z,9.05
2022-08-23T07:14:11.194Z,9.57
2022-08-23T07:16:46.587Z,8.57
2022-08-23T07:19:13.432Z,9.32
2022-08-23T07:21:40.411Z,8.50
2022-08-23T07:24:07.251Z,9.13
2022-08-23T07:26:35.388Z,7.30
2022-08-23T07:29:06.397Z,6.53
2022-08-23T07:31:34.241Z,6.53
2022-08-23T07:34:05.959Z,7.68
2022-08-23T07:36:33.808Z,7.57
2022-08-23T07:39:01.073Z,7.72
2022-08-23T07:41:31.019Z,8.98
2022-08-23T07:44:02.411Z,7.85
2022-08-23T07:46:31.109Z,7.80
2022-08-23T07:48:58.739Z,5.95
2022-08-23T07:51:26.336Z,7.93
2022-08-23T07:53:53.086Z,6.22
2022-08-23T07:56:20.953Z,7.10
2022-08-23T07:58:48.037Z,7.20
2022-08-23T08:01:22.210Z,7.03
2022-08-23T08:03:52.643Z,7.20
2022-08-23T08:06:27.887Z,5.32
2022-08-23T08:08:55.349Z,6.65
2022-08-23T08:11:25.337Z,7.47
2022-08-23T08:13:52.525Z,5.90
2022-08-23T08:16:28.140Z,5.63
2022-08-23T08:18:56.300Z,7.45
2022-08-23T08:21:23.474Z,5.55
2022-08-23T08:23:50.321Z,5.85
2022-08-23T08:26:17.673Z,5.82
2022-08-23T08:28:45.445Z,6.18
2022-08-23T08:31:13.331Z,5.65
2022-08-23T08:33:40.580Z,7.13
2022-08-23T08:36:08.394Z,6.78
2022-08-23T08:38:47.802Z,4.93
2022-08-23T08:41:19.841Z,6.10
2022-08-23T08:44:19.677Z,6.60
2022-08-23T08:46:57.001Z,4.85
2022-08-23T08:49:43.109Z,4.53
2022-08-23T08:52:17.415Z,6.15
2022-08-23T08:54:48.179Z,4.38
2022-08-23T08:57:18.641Z,6.25
2022-08-23T09:00:00.222Z,5.35
2022-08-23T09:02:33.675Z,6.20
2022-08-23T09:05:06.771Z,6.32
2022-08-23T09:08:02.411Z,11.65
2022-08-23T09:10:41.120Z,7.72
2022-08-23T09:13:20.512Z,6.85
2022-08-23T09:16:05.822Z,6.40
2022-08-23T09:18:34.973Z,7.20
2022-08-23T09:21:02.354Z,6.72
2022-08-23T09:23:35.713Z,7.75
2022-08-23T09:26:04.734Z,6.22
2022-08-23T09:28:36.472Z,6.78
2022-08-23T09:31:04.049Z,7.18
2022-08-23T09:33:40.541Z,7.18
2022-08-23T09:36:17.117Z,4.72
2022-08-23T09:39:05.166Z,6.95
2022-08-23T09:41:36.793Z,7.00
2022-08-23T09:44:07.263Z,6.68
2022-08-23T09:46:39.239Z,7.35
2022-08-23T09:49:23.152Z,6.95
2022-08-23T09:51:50.657Z,5.43
2022-08-23T09:54:33.255Z,6.80
2022-08-23T09:57:06.036Z,5.38
2022-08-23T09:59:47.848Z,5.03
2022-08-23T10:02:24.268Z,5.78
2022-08-23T10:05:07.989Z,5.22
2022-08-23T10:07:54.541Z,6.25
2022-08-23T10:10:29.582Z,5.70
2022-08-23T10:12:57.089Z,5.18
2022-08-23T10:15:31.916Z,5.20
2022-08-23T10:18:24.881Z,5.15
2022-08-23T10:21:02.070Z,6.28
2022-08-23T10:23:38.408Z,6.05
2022-08-23T10:26:07.651Z,5.47
2022-08-23T10:29:08.121Z,7.00
2022-08-23T10:32:03.247Z,4.95
2022-08-23T10:35:06.600Z,6.05
2022-08-23T10:38:00.773Z,5.72
2022-08-23T10:40:36.244Z,6.05
2022-08-23T10:43:33.681Z,4.90
2022-08-23T10:46:02.664Z,6.40
2022-08-23T10:48:33.123Z,6.47
2022-08-23T10:51:03.873Z,6.47
2022-08-23T10:53:38.610Z,6.25
2022-08-23T10:58:52.104Z,5.50
2022-08-23T11:01:22.295Z,6.22
2022-08-23T11:04:00.031Z,6.35
2022-08-23T11:06:35.548Z,7.20
2022-08-23T11:09:18.867Z,5.88
2022-08-23T11:12:11.830Z,6.32
2022-08-23T11:14:42.074Z,6.72
2022-08-23T11:17:11.907Z,6.55
2022-08-23T11:20:00.218Z,6.75
2022-08-23T11:22:28.287Z,7.03
2022-08-23T11:25:00.858Z,7.43
2022-08-23T11:27:27.581Z,7.53
2022-08-23T11:29:55.447Z,6.97
2022-08-23T11:32:22.079Z,8.27
2022-08-23T11:35:04.111Z,7.15
2022-08-23T11:37:49.895Z,7.15
2022-08-23T11:40:59.903Z,8.02
2022-08-23T11:43:38.280Z,7.53
2022-08-23T11:46:23.383Z,7.68
2022-08-23T11:48:57.814Z,6.85
2022-08-23T11:51:42.021Z,6.78
2022-08-23T11:54:16.727Z,6.30
2022-08-23T11:56:59.373Z,6.53
2022-08-23T12:00:13.813Z,5.40
2022-08-23T12:03:04.823Z,5.75
2022-08-23T12:05:34.160Z,5.82
2022-08-23T12:08:03.693Z,6.32
2022-08-23T12:10:42.712Z,6.70
2022-08-23T12:13:18.366Z,5.63
2022-08-23T12:16:03.588Z,6.50
2022-08-23T12:18:31.976Z,5.07
2022-08-23T12:21:00.630Z,6.80
2022-08-23T12:23:28.139Z,5.47
2022-08-23T12:26:00.848Z,5.97
2022-08-23T12:28:42.695Z,5.80
2022-08-23T12:31:20.976Z,4.97
2022-08-23T12:34:12.945Z,6.68
2022-08-23T12:36:48.622Z,6.45
2022-08-23T12:39:29.773Z,6.60
2022-08-23T12:42:10.939Z,7.10
2022-08-23T12:44:37.998Z,7.22
2022-08-23T12:47:14.070Z,6.65
2022-08-23T12:49:41.134Z,7.55
2022-08-23T12:52:10.786Z,5.80
2022-08-23T12:54:44.175Z,7.00
2022-08-23T12:57:17.692Z,5.47
2022-08-23T12:59:52.122Z,7.00
2022-08-23T13:02:25.391Z,6.20
2022-08-23T13:04:53.048Z,7.35
2022-08-23T13:07:23.215Z,7.13
2022-08-23T13:09:53.649Z,8.38
2022-08-23T13:12:22.151Z,7.13
2022-08-23T13:14:51.841Z,5.88
2022-08-23T13:17:27.430Z,6.88
2022-08-23T13:20:12.535Z,7.72
2022-08-23T13:22:55.188Z,7.70
2022-08-23T13:25:31.262Z,6.85
2022-08-23T13:28:02.827Z,7.22
2022-08-23T13:30:38.799Z,5.78
2022-08-23T13:33:08.347Z,7.60
2022-08-23T13:35:44.542Z,8.75
2022-08-23T13:38:18.249Z,8.23
2022-08-23T13:40:53.433Z,8.70
2022-08-23T13:43:46.385Z,7.38
2022-08-23T13:46:34.232Z,7.95
2022-08-23T13:49:10.568Z,7.47
2022-08-23T13:51:45.583Z,7.28
2022-08-23T13:54:15.958Z,8.52
2022-08-23T13:56:53.372Z,8.82
2022-08-23T13:59:31.655Z,8.07
2022-08-23T14:02:12.200Z,7.35
2022-08-23T14:04:39.007Z,6.78
2022-08-23T14:07:06.241Z,8.00
2022-08-23T14:09:33.840Z,8.48
2022-08-23T14:12:04.006Z,6.80
2022-08-23T14:14:32.297Z,8.75
2022-08-23T14:17:02.620Z,8.05
2022-08-23T14:22:18.633Z,8.02
2022-08-23T14:24:45.660Z,8.60
2022-08-23T14:27:12.458Z,8.68
2022-08-23T14:29:39.238Z,8.88
2022-08-23T14:32:06.145Z,8.43
2022-08-23T14:34:32.824Z,8.13
2022-08-23T14:39:46.303Z,8.43
2022-08-23T14:42:15.769Z,8.40
2022-08-23T14:44:42.473Z,7.93
2022-08-23T14:47:09.171Z,8.20
2022-08-23T14:49:36.133Z,9.35
2022-08-23T14:52:03.207Z,9.95
2022-08-23T14:54:30.481Z,8.60
2022-08-23T14:56:57.223Z,9.43
2022-08-23T14:59:23.913Z,9.13
2022-08-23T15:01:52.837Z,9.10
2022-08-23T15:04:22.939Z,8.82
2022-08-23T15:07:16.175Z,10.13
2022-08-23T15:09:38.342Z,10.35
2022-08-23T15:17:18.910Z,11.02
2022-08-23T15:19:45.664Z,10.05
2022-08-23T15:22:21.423Z,8.77
2022-08-23T15:24:49.264Z,10.13
2022-08-23T15:27:15.993Z,10.40
2022-08-23T15:29:42.695Z,9.45
2022-08-23T15:32:11.004Z,10.73
2022-08-23T15:34:40.106Z,9.75
2022-08-23T15:37:12.445Z,12.20
2022-08-23T15:39:39.108Z,10.90
2022-08-23T15:42:06.032Z,10.02
2022-08-23T15:44:32.818Z,11.57
2022-08-23T15:46:59.490Z,14.27
2022-08-23T15:49:46.693Z,13.45
2022-08-23T15:52:13.369Z,13.43
2022-08-23T15:54:40.249Z,13.18
2022-08-23T15:57:07.109Z,12.07
2022-08-23T15:59:37.253Z,14.52
2022-08-23T16:02:04.409Z,13.05
2022-08-23T16:04:32.650Z,12.60
2022-08-23T16:07:05.643Z,12.60
2022-08-23T16:09:34.303Z,11.30
2022-08-23T16:12:02.239Z,11.15
2022-08-23T16:14:31.231Z,10.88
2022-08-23T16:16:58.697Z,12.55
2022-08-23T16:19:26.600Z,11.27
2022-08-23T16:21:54.296Z,11.00
2022-08-23T16:24:22.526Z,11.27
2022-08-23T16:26:52.023Z,14.27
2022-08-23T16:29:20.195Z,11.48
2022-08-23T16:31:47.527Z,11.75
2022-08-23T16:34:17.321Z,12.10
2022-08-23T16:36:46.890Z,10.15
2022-08-23T16:39:16.558Z,11.10
2022-08-23T16:41:43.352Z,9.45
2022-08-23T16:44:10.113Z,10.48
2022-08-23T16:46:37.236Z,9.07
2022-08-23T16:49:03.988Z,9.05
2022-08-23T16:51:30.732Z,9.95
2022-08-23T16:54:02.689Z,8.75
2022-08-23T16:56:34.179Z,8.30
2022-08-23T16:59:01.495Z,10.30
2022-08-23T17:01:29.127Z,8.27
2022-08-23T17:03:55.920Z,9.10
2022-08-23T17:06:22.819Z,8.05
2022-08-23T17:08:49.621Z,9.55
2022-08-23T17:11:19.268Z,8.73
2022-08-23T17:13:46.334Z,9.57
2022-08-23T17:16:13.219Z,7.95
2022-08-23T17:18:40.404Z,9.23
2022-08-23T17:21:07.756Z,8.50
2022-08-23T17:23:39.262Z,8.27
2022-08-23T17:26:08.013Z,8.85
2022-08-23T17:28:34.844Z,9.13
2022-08-23T17:31:01.621Z,8.60
2022-08-23T17:33:28.565Z,7.70
2022-08-23T17:35:55.265Z,12.27
2022-08-23T17:38:21.984Z,11.60
2022-08-23T17:40:49.214Z,6.78
2022-08-23T17:43:15.872Z,10.10
2022-08-23T17:45:48.429Z,8.88
2022-08-23T17:48:16.527Z,9.65
2022-08-23T17:50:44.471Z,11.95
2022-08-23T17:53:12.620Z,9.50
2022-08-23T17:55:40.699Z,7.97
2022-08-23T17:58:09.945Z,10.27
2022-08-23T18:00:38.076Z,9.98
2022-08-23T18:03:05.642Z,9.88
2022-08-23T18:05:33.660Z,10.25
2022-08-23T18:08:00.996Z,9.68
2022-08-23T18:10:29.968Z,10.43
2022-08-23T18:12:57.306Z,12.30
2022-08-23T18:15:24.515Z,9.80
2022-08-23T18:17:53.985Z,10.43
2022-08-23T18:20:26.722Z,7.15
2022-08-23T18:22:54.932Z,10.52
2022-08-23T18:25:21.768Z,10.07
2022-08-23T18:28:06.588Z,10.65
2022-08-23T18:30:36.685Z,8.20
2022-08-23T18:33:04.790Z,9.48
2022-08-23T18:35:32.562Z,14.60
2022-08-23T18:37:59.406Z,9.95
2022-08-23T18:40:27.525Z,9.30
2022-08-23T18:42:55.063Z,8.27
2022-08-23T18:45:22.141Z,7.95
2022-08-23T18:47:49.249Z,9.02
2022-08-23T18:50:16.845Z,10.40
2022-08-23T18:52:43.744Z,8.65
2022-08-23T18:55:10.648Z,9.68
2022-08-23T18:57:39.076Z,8.07
2022-08-23T19:00:07.214Z,7.90
2022-08-23T19:02:34.122Z,9.13
2022-08-23T19:05:03.015Z,8.30
2022-08-23T19:07:29.846Z,7.38
2022-08-23T19:09:56.550Z,7.57
2022-08-23T19:12:23.335Z,9.43
2022-08-23T19:14:50.117Z,7.38
2022-08-23T19:17:16.803Z,8.07
2022-08-23T19:19:43.535Z,7.05
2022-08-23T19:22:10.377Z,9.32
2022-08-23T19:24:37.093Z,10.20
2022-08-23T19:27:04.127Z,8.38
2022-08-23T19:29:32.019Z,8.20
2022-08-23T19:31:59.375Z,8.75
2022-08-23T19:34:26.897Z,7.75
2022-08-23T19:37:00.729Z,8.02
2022-08-23T19:39:28.925Z,7.18
2022-08-23T19:41:55.846Z,8.10
2022-08-23T19:44:22.733Z,7.72
2022-08-23T19:46:50.088Z,8.07
2022-08-23T19:49:16.878Z,8.70
2022-08-23T19:51:43.863Z,9.95
2022-08-23T19:54:12.643Z,9.27
2022-08-23T19:56:48.709Z,7.43
2022-08-23T19:59:21.292Z,8.38
2022-08-23T20:01:49.823Z,8.18
2022-08-23T20:04:17.609Z,9.38
2022-08-23T20:06:44.298Z,8.32
2022-08-23T20:09:11.524Z,7.03
2022-08-23T20:11:39.648Z,9.50
2022-08-23T20:14:07.451Z,8.77
2022-08-23T20:16:35.139Z,8.15
2022-08-23T20:19:02.175Z,8.32
2022-08-23T20:21:29.372Z,8.52
2022-08-23T20:24:02.306Z,7.22
2022-08-23T20:26:34.017Z,8.60
2022-08-23T20:29:05.072Z,7.85
2022-08-23T20:31:35.724Z,7.75
2022-08-23T20:34:04.680Z,8.75
2022-08-23T20:36:33.397Z,12.20
2022-08-23T20:39:01.372Z,10.65
2022-08-23T20:41:31.692Z,8.45
2022-08-23T20:43:59.254Z,9.65
2022-08-23T20:46:26.649Z,9.68
2022-08-23T20:48:53.549Z,8.95
2022-08-23T20:51:21.118Z,9.75
2022-08-23T20:53:47.971Z,9.73
2022-08-23T20:56:14.857Z,8.93
2022-08-23T20:58:41.836Z,10.68
2022-08-23T21:01:09.293Z,9.52
2022-08-23T21:03:38.534Z,9.55
2022-08-23T21:06:07.576Z,9.10
2022-08-23T21:08:35.389Z,9.77
2022-08-23T21:11:08.922Z,9.18
2022-08-23T21:13:35.769Z,8.85
2022-08-23T21:16:02.695Z,8.10
2022-08-23T21:18:29.427Z,9.35
2022-08-23T21:20:56.858Z,9.10
2022-08-23T21:23:24.874Z,8.10
2022-08-23T21:25:56.974Z,9.07
2022-08-23T21:28:25.082Z,9.52
2022-08-23T21:30:52.576Z,9.45
2022-08-23T21:33:20.981Z,9.52
2022-08-23T21:35:48.482Z,10.45
2022-08-23T21:38:15.137Z,10.45
2022-08-23T21:40:42.029Z,10.70
2022-08-23T21:43:08.771Z,9.98
2022-08-23T21:45:35.468Z,10.70
2022-08-23T21:48:08.212Z,9.10
2022-08-23T21:50:34.916Z,9.75
2022-08-23T21:53:01.724Z,8.30
2022-08-23T21:55:35.274Z,10.00
2022-08-23T21:58:03.042Z,11.35
2022-08-23T22:00:29.807Z,10.43
2022-08-23T22:02:56.515Z,8.68
2022-08-23T22:05:23.291Z,11.32
2022-08-23T22:07:50.157Z,11.85
2022-08-23T22:10:16.822Z,12.43
2022-08-23T22:12:43.779Z,13.00
2022-08-23T22:15:11.121Z,9.73
2022-08-23T22:17:38.351Z,10.05
2022-08-23T22:20:07.201Z,10.65
2022-08-23T22:22:34.126Z,9.10
2022-08-23T22:25:01.502Z,10.40
2022-08-23T22:27:28.706Z,10.60
2022-08-23T22:29:55.819Z,8.73
2022-08-23T22:32:22.994Z,9.70
2022-08-23T22:34:49.747Z,8.80
2022-08-23T22:37:16.501Z,8.50
2022-08-23T22:39:43.413Z,7.28
2022-08-23T22:42:10.187Z,7.97
2022-08-23T22:44:37.404Z,8.40
2022-08-23T22:47:04.254Z,9.02
2022-08-23T22:49:31.002Z,8.13
2022-08-23T22:51:57.949Z,9.23
2022-08-23T22:54:25.187Z,8.90
2022-08-23T22:56:52.833Z,9.52
2022-08-23T22:59:21.480Z,8.18
2022-08-23T23:01:53.989Z,7.35
2022-08-23T23:04:23.671Z,7.80
2022-08-23T23:06:50.422Z,7.72
2022-08-23T23:09:17.269Z,6.88
2022-08-23T23:11:45.572Z,7.13
2022-08-23T23:14:14.615Z,6.65
2022-08-23T23:16:42.345Z,7.00
2022-08-23T23:19:27.941Z,7.15
2022-08-23T23:21:56.732Z,6.38
2022-08-23T23:26:51.952Z,6.90
2022-08-23T23:29:19.417Z,7.45
2022-08-23T23:31:46.092Z,6.43
2022-08-23T23:34:13.169Z,9.57
2022-08-23T23:36:41.170Z,10.32
2022-08-23T23:39:10.219Z,10.23
2022-08-23T23:41:36.989Z,10.50
2022-08-23T23:44:04.758Z,11.85
2022-08-23T23:46:31.514Z,10.55
2022-08-23T23:48:58.355Z,11.23
2022-08-23T23:51:27.482Z,11.30
2022-08-23T23:53:56.127Z,8.60
2022-08-23T23:56:23.824Z,10.77
2022-08-23T23:58:54.671Z,10.73
